sensor_id;sensor_type;location;lat;lon;timestamp;pressure;altitude;pressure_sealevel;temperature;humidity
21129;BME280;10722;51.910;8.352;2023-05-23T00:01:15;100784.03;;;14.83;100.00
21129;BME280;10722;51.910;8.352;2023-05-23T00:04:00;100781.44;;;14.79;100.00
21129;BME280;10722;51.910;8.352;2023-05-23T00:06:45;100779.69;;;14.71;100.00
21129;BME280;10722;51.910;8.352;2023-05-23T00:09:31;100786.59;;;14.60;100.00
21129;BME280;10722;51.910;8.352;2023-05-23T00:12:16;100786.59;;;14.60;100.00
21129;BME280;10722;51.910;8.352;2023-05-23T00:15:02;100781.41;;;14.53;100.00
21129;BME280;10722;51.910;8.352;2023-05-23T00:17:47;100784.75;;;14.39;100.00
21129;BME280;10722;51.910;8.352;2023-05-23T00:20:32;100789.09;;;14.38;100.00
21129;BME280;10722;51.910;8.352;2023-05-23T00:23:18;100792.63;;;14.42;100.00
21129;BME280;10722;51.910;8.352;2023-05-23T00:26:03;100787.38;;;14.37;100.00
21129;BME280;10722;51.910;8.352;2023-05-23T00:28:49;100789.09;;;14.32;100.00
21129;BME280;10722;51.910;8.352;2023-05-23T00:31:34;100791.72;;;14.30;100.00
21129;BME280;10722;51.910;8.352;2023-05-23T00:34:20;100795.16;;;14.26;100.00
21129;BME280;10722;51.910;8.352;2023-05-23T00:37:05;100801.22;;;14.33;100.00
21129;BME280;10722;51.910;8.352;2023-05-23T00:39:51;100802.13;;;14.38;100.00
21129;BME280;10722;51.910;8.352;2023-05-23T00:42:36;100811.66;;;14.38;100.00
21129;BME280;10722;51.910;8.352;2023-05-23T00:45:21;100810.84;;;14.48;100.00
21129;BME280;10722;51.910;8.352;2023-05-23T00:48:06;100809.06;;;14.41;100.00
21129;BME280;10722;51.910;8.352;2023-05-23T00:50:52;100805.59;;;14.39;100.00
21129;BME280;10722;51.910;8.352;2023-05-23T00:53:38;100803.97;;;14.62;100.00
21129;BME280;10722;51.910;8.352;2023-05-23T00:56:23;100807.47;;;14.70;100.00
21129;BME280;10722;51.910;8.352;2023-05-23T00:59:08;100804.84;;;14.63;100.00
21129;BME280;10722;51.910;8.352;2023-05-23T01:01:55;100810.91;;;14.60;100.00
21129;BME280;10722;51.910;8.352;2023-05-23T01:04:42;100804.81;;;14.56;100.00
21129;BME280;10722;51.910;8.352;2023-05-23T01:07:27;100810.91;;;14.66;100.00
21129;BME280;10722;51.910;8.352;2023-05-23T01:10:20;100817.88;;;14.64;100.00
21129;BME280;10722;51.910;8.352;2023-05-23T01:13:25;100816.03;;;14.42;100.00
21129;BME280;10722;51.910;8.352;2023-05-23T01:28:48;100819.41;;;14.18;100.00
21129;BME280;10722;51.910;8.352;2023-05-23T01:31:36;100827.25;;;14.28;100.00
21129;BME280;10722;51.910;8.352;2023-05-23T01:34:23;100811.59;;;14.21;100.00
21129;BME280;10722;51.910;8.352;2023-05-23T01:37:09;100809.88;;;14.18;100.00
21129;BME280;10722;51.910;8.352;2023-05-23T01:39:55;100814.16;;;14.13;100.00
21129;BME280;10722;51.910;8.352;2023-05-23T01:42:40;100811.59;;;14.16;100.00
21129;BME280;10722;51.910;8.352;2023-05-23T01:45:27;100808.94;;;14.07;100.00
21129;BME280;10722;51.910;8.352;2023-05-23T01:48:14;100814.16;;;14.07;100.00
21129;BME280;10722;51.910;8.352;2023-05-23T01:51:00;100808.94;;;14.04;100.00
21129;BME280;10722;51.910;8.352;2023-05-23T01:53:45;100806.31;;;13.99;100.00
21129;BME280;10722;51.910;8.352;2023-05-23T01:56:31;100817.63;;;14.09;100.00
21129;BME280;10722;51.910;8.352;2023-05-23T01:59:17;100809.84;;;14.09;100.00
21129;BME280;10722;51.910;8.352;2023-05-23T02:02:02;100815.91;;;14.08;100.00
21129;BME280;10722;51.910;8.352;2023-05-23T02:04:48;100818.53;;;14.14;100.00
21129;BME280;10722;51.910;8.352;2023-05-23T02:07:33;100822.03;;;14.24;100.00
21129;BME280;10722;51.910;8.352;2023-05-23T02:10:19;100823.75;;;14.22;100.00
21129;BME280;10722;51.910;8.352;2023-05-23T02:13:04;100816.78;;;14.16;100.00
21129;BME280;10722;51.910;8.352;2023-05-23T02:15:49;100816.75;;;14.07;100.00
21129;BME280;10722;51.910;8.352;2023-05-23T02:18:34;100815.91;;;14.08;100.00
21129;BME280;10722;51.910;8.352;2023-05-23T02:21:20;100818.47;;;14.05;100.00
21129;BME280;10722;51.910;8.352;2023-05-23T02:24:05;100824.56;;;14.13;100.00
21129;BME280;10722;51.910;8.352;2023-05-23T02:26:50;100817.59;;;14.01;100.00
21129;BME280;10722;51.910;8.352;2023-05-23T02:29:36;100825.44;;;14.09;100.00
21129;BME280;10722;51.910;8.352;2023-05-23T02:32:21;100836.75;;;14.14;100.00
21129;BME280;10722;51.910;8.352;2023-05-23T02:35:07;100832.41;;;14.16;100.00
21129;BME280;10722;51.910;8.352;2023-05-23T02:37:52;100835.84;;;14.09;100.00
21129;BME280;10722;51.910;8.352;2023-05-23T02:40:37;100837.63;;;14.24;100.00
21129;BME280;10722;51.910;8.352;2023-05-23T02:43:24;100835.88;;;14.17;100.00
21129;BME280;10722;51.910;8.352;2023-05-23T02:46:09;100838.50;;;14.24;100.00
21129;BME280;10722;51.910;8.352;2023-05-23T02:48:55;100839.34;;;14.22;100.00
21129;BME280;10722;51.910;8.352;2023-05-23T02:51:40;100841.91;;;14.06;100.00
21129;BME280;10722;51.910;8.352;2023-05-23T02:54:25;100840.19;;;14.16;100.00
21129;BME280;10722;51.910;8.352;2023-05-23T02:57:11;100845.47;;;14.22;100.00
21129;BME280;10722;51.910;8.352;2023-05-23T02:59:56;100845.41;;;14.16;100.00
21129;BME280;10722;51.910;8.352;2023-05-23T03:02:41;100846.31;;;14.17;100.00
21129;BME280;10722;51.910;8.352;2023-05-23T03:05:27;100836.78;;;14.25;100.00
21129;BME280;10722;51.910;8.352;2023-05-23T03:08:12;100834.13;;;14.08;100.00
21129;BME280;10722;51.910;8.352;2023-05-23T03:10:57;100842.81;;;14.15;100.00
21129;BME280;10722;51.910;8.352;2023-05-23T03:13:43;100845.31;;;13.99;100.00
21129;BME280;10722;51.910;8.352;2023-05-23T03:16:28;100854.00;;;14.00;100.00
21129;BME280;10722;51.910;8.352;2023-05-23T03:19:13;100850.53;;;13.98;100.00
21129;BME280;10722;51.910;8.352;2023-05-23T03:21:59;100849.50;;;13.73;100.00
21129;BME280;10722;51.910;8.352;2023-05-23T03:24:44;100849.41;;;13.59;100.00
21129;BME280;10722;51.910;8.352;2023-05-23T03:27:29;100847.69;;;13.62;100.00
21129;BME280;10722;51.910;8.352;2023-05-23T03:30:15;100856.25;;;13.48;100.00
21129;BME280;10722;51.910;8.352;2023-05-23T03:33:00;100862.38;;;13.56;100.00
21129;BME280;10722;51.910;8.352;2023-05-23T03:35:46;100865.78;;;13.49;100.00
21129;BME280;10722;51.910;8.352;2023-05-23T03:38:31;100862.44;;;13.62;100.00
21129;BME280;10722;51.910;8.352;2023-05-23T03:41:16;100868.34;;;13.41;100.00
21129;BME280;10722;51.910;8.352;2023-05-23T03:44:02;100875.22;;;13.37;100.00
21129;BME280;10722;51.910;8.352;2023-05-23T03:46:47;100869.84;;;13.20;100.00
21129;BME280;10722;51.910;8.352;2023-05-23T03:49:33;100874.94;;;13.07;100.00
21129;BME280;10722;51.910;8.352;2023-05-23T03:52:18;100886.22;;;13.12;100.00
21129;BME280;10722;51.910;8.352;2023-05-23T03:55:04;100887.13;;;13.14;100.00
21129;BME280;10722;51.910;8.352;2023-05-23T03:57:52;100893.34;;;13.27;100.00
21129;BME280;10722;51.910;8.352;2023-05-23T04:00:38;100894.19;;;13.27;100.00
21129;BME280;10722;51.910;8.352;2023-05-23T04:03:23;100894.34;;;13.41;100.00
21129;BME280;10722;51.910;8.352;2023-05-23T04:06:08;100900.44;;;13.46;100.00
21129;BME280;10722;51.910;8.352;2023-05-23T04:08:56;100900.38;;;13.38;100.00
21129;BME280;10722;51.910;8.352;2023-05-23T04:11:42;100903.72;;;13.28;100.00
21129;BME280;10722;51.910;8.352;2023-05-23T04:14:27;100900.38;;;13.38;100.00
21129;BME280;10722;51.910;8.352;2023-05-23T04:17:12;100903.88;;;13.43;100.00
21129;BME280;10722;51.910;8.352;2023-05-23T04:19:57;100905.72;;;13.60;100.00
21129;BME280;10722;51.910;8.352;2023-05-23T04:22:42;100904.88;;;13.61;100.00
21129;BME280;10722;51.910;8.352;2023-05-23T04:25:28;100904.88;;;13.59;100.00
21129;BME280;10722;51.910;8.352;2023-05-23T04:28:12;100907.47;;;13.59;100.00
21129;BME280;10722;51.910;8.352;2023-05-23T04:30:58;100902.34;;;13.67;100.00
21129;BME280;10722;51.910;8.352;2023-05-23T04:33:43;100906.63;;;13.62;100.00
21129;BME280;10722;51.910;8.352;2023-05-23T04:36:29;100911.88;;;13.71;100.00
21129;BME280;10722;51.910;8.352;2023-05-23T04:39:14;100913.66;;;13.75;100.00
21129;BME280;10722;51.910;8.352;2023-05-23T04:42:00;100917.16;;;13.79;100.00
21129;BME280;10722;51.910;8.352;2023-05-23T04:44:45;100921.53;;;13.84;100.00
21129;BME280;10722;51.910;8.352;2023-05-23T04:47:30;100913.72;;;13.84;100.00
21129;BME280;10722;51.910;8.352;2023-05-23T04:50:15;100917.19;;;13.85;100.00
21129;BME280;10722;51.910;8.352;2023-05-23T04:53:01;100913.78;;;13.94;100.00
21129;BME280;10722;51.910;8.352;2023-05-23T04:55:46;100916.38;;;13.94;100.00
21129;BME280;10722;51.910;8.352;2023-05-23T04:58:31;100915.53;;;13.95;100.00
21129;BME280;10722;51.910;8.352;2023-05-23T05:01:16;100910.34;;;13.98;100.00
21129;BME280;10722;51.910;8.352;2023-05-23T05:04:02;100912.09;;;14.00;100.00
21129;BME280;10722;51.910;8.352;2023-05-23T05:06:47;100918.13;;;13.93;100.00
21129;BME280;10722;51.910;8.352;2023-05-23T05:09:33;100914.69;;;13.94;100.00
21129;BME280;10722;51.910;8.352;2023-05-23T05:12:18;100919.03;;;13.98;100.00
21129;BME280;10722;51.910;8.352;2023-05-23T05:15:03;100909.50;;;14.02;100.00
21129;BME280;10722;51.910;8.352;2023-05-23T05:17:49;100918.19;;;14.04;100.00
21129;BME280;10722;51.910;8.352;2023-05-23T05:20:34;100904.31;;;14.05;100.00
21129;BME280;10722;51.910;8.352;2023-05-23T05:23:23;100911.25;;;14.04;100.00
21129;BME280;10722;51.910;8.352;2023-05-23T05:26:09;100914.69;;;14.02;100.00
21129;BME280;10722;51.910;8.352;2023-05-23T05:28:54;100913.88;;;14.07;100.00
21129;BME280;10722;51.910;8.352;2023-05-23T05:31:40;100916.44;;;14.00;100.00
21129;BME280;10722;51.910;8.352;2023-05-23T05:34:25;100920.88;;;14.15;100.00
21129;BME280;10722;51.910;8.352;2023-05-23T05:37:11;100922.59;;;14.19;100.00
21129;BME280;10722;51.910;8.352;2023-05-23T05:39:56;100921.78;;;14.20;100.00
21129;BME280;10722;51.910;8.352;2023-05-23T05:42:41;100927.84;;;14.23;100.00
21129;BME280;10722;51.910;8.352;2023-05-23T05:45:26;100920.91;;;14.21;100.00
21129;BME280;10722;51.910;8.352;2023-05-23T05:48:12;100923.50;;;14.19;100.00
21129;BME280;10722;51.910;8.352;2023-05-23T05:50:57;100930.44;;;14.20;100.00
21129;BME280;10722;51.910;8.352;2023-05-23T05:53:43;100932.94;;;14.06;100.00
21129;BME280;10722;51.910;8.352;2023-05-23T05:56:28;100928.66;;;14.13;100.00
21129;BME280;10722;51.910;8.352;2023-05-23T05:59:13;100925.97;;;13.98;100.00
21129;BME280;10722;51.910;8.352;2023-05-23T06:01:58;100932.03;;;14.01;100.00
21129;BME280;10722;51.910;8.352;2023-05-23T06:04:43;100924.25;;;14.03;100.00
21129;BME280;10722;51.910;8.352;2023-05-23T06:07:29;100932.91;;;14.02;100.00
21129;BME280;10722;51.910;8.352;2023-05-23T06:10:14;100936.41;;;14.07;100.00
21129;BME280;10722;51.910;8.352;2023-05-23T06:12:59;100939.03;;;14.05;100.00
21129;BME280;10722;51.910;8.352;2023-05-23T06:15:45;100940.72;;;14.05;100.00
21129;BME280;10722;51.910;8.352;2023-05-23T06:18:30;100946.00;;;14.16;100.00
21129;BME280;10722;51.910;8.352;2023-05-23T06:21:16;100939.03;;;14.05;100.00
21129;BME280;10722;51.910;8.352;2023-05-23T06:24:01;100944.28;;;14.16;100.00
21129;BME280;10722;51.910;8.352;2023-05-23T06:26:47;100938.09;;;13.94;100.00
21129;BME280;10722;51.910;8.352;2023-05-23T06:29:32;100940.66;;;13.93;100.00
21129;BME280;10722;51.910;8.352;2023-05-23T06:32:17;100952.78;;;13.94;100.00
21129;BME280;10722;51.910;8.352;2023-05-23T06:35:03;100954.56;;;13.95;100.00
21129;BME280;10722;51.910;8.352;2023-05-23T06:37:48;100959.69;;;13.87;100.00
21129;BME280;10722;51.910;8.352;2023-05-23T06:40:33;100959.56;;;13.68;100.00
21129;BME280;10722;51.910;8.352;2023-05-23T06:43:18;100962.06;;;13.59;100.00
21129;BME280;10722;51.910;8.352;2023-05-23T06:46:04;100966.47;;;13.68;100.00
21129;BME280;10722;51.910;8.352;2023-05-23T06:48:49;100969.81;;;13.56;100.00
21129;BME280;10722;51.910;8.352;2023-05-23T06:51:51;100976.81;;;13.62;100.00
21129;BME280;10722;51.910;8.352;2023-05-23T06:54:36;100981.19;;;13.66;100.00
21129;BME280;10722;51.910;8.352;2023-05-23T06:57:21;100986.41;;;13.71;100.00
21129;BME280;10722;51.910;8.352;2023-05-23T07:00:07;100987.22;;;13.62;100.00
21129;BME280;10722;51.910;8.352;2023-05-23T07:02:52;100985.44;;;13.58;100.00
21129;BME280;10722;51.910;8.352;2023-05-23T07:05:37;100988.00;;;13.53;100.00
21129;BME280;10722;51.910;8.352;2023-05-23T07:08:25;100993.88;;;13.32;100.00
21129;BME280;10722;51.910;8.352;2023-05-23T07:11:11;100999.97;;;13.36;100.00
21129;BME280;10722;51.910;8.352;2023-05-23T07:13:56;101005.88;;;13.24;100.00
21129;BME280;10722;51.910;8.352;2023-05-23T07:16:41;101004.25;;;13.34;100.00
21129;BME280;10722;51.910;8.352;2023-05-23T07:19:27;101002.63;;;13.40;100.00
21129;BME280;10722;51.910;8.352;2023-05-23T07:22:12;101004.25;;;13.32;100.00
21129;BME280;10722;51.910;8.352;2023-05-23T07:24:58;101012.13;;;13.38;100.00
21129;BME280;10722;51.910;8.352;2023-05-23T07:27:43;101012.03;;;13.29;100.00
21129;BME280;10722;51.910;8.352;2023-05-23T07:30:29;101012.66;;;13.13;100.00
21129;BME280;10722;51.910;8.352;2023-05-23T07:33:17;101018.84;;;13.24;100.00
21129;BME280;10722;51.910;8.352;2023-05-23T07:36:02;101009.22;;;13.17;100.00
21129;BME280;10722;51.910;8.352;2023-05-23T07:38:48;101014.44;;;13.15;100.00
21129;BME280;10722;51.910;8.352;2023-05-23T07:41:32;101020.50;;;13.17;100.00
21129;BME280;10722;51.910;8.352;2023-05-23T07:44:18;101028.31;;;13.20;100.00
21129;BME280;10722;51.910;8.352;2023-05-23T07:47:06;101025.06;;;13.35;100.00
21129;BME280;10722;51.910;8.352;2023-05-23T07:49:51;101021.66;;;13.42;100.00
21129;BME280;10722;51.910;8.352;2023-05-23T07:52:36;101028.66;;;13.48;100.00
21129;BME280;10722;51.910;8.352;2023-05-23T07:55:21;101037.31;;;13.49;100.00
21129;BME280;10722;51.910;8.352;2023-05-23T07:58:06;101033.03;;;13.51;100.00
21129;BME280;10722;51.910;8.352;2023-05-23T08:00:51;101037.38;;;13.52;100.00
21129;BME280;10722;51.910;8.352;2023-05-23T08:03:37;101038.94;;;13.37;100.00
21129;BME280;10722;51.910;8.352;2023-05-23T08:06:23;101037.44;;;13.58;100.00
21129;BME280;10722;51.910;8.352;2023-05-23T08:09:08;101041.84;;;13.68;100.00
21129;BME280;10722;51.910;8.352;2023-05-23T08:11:53;101044.47;;;13.71;100.00
21129;BME280;10722;51.910;8.352;2023-05-23T08:14:38;101046.06;;;13.57;100.00
21129;BME280;10722;51.910;8.352;2023-05-23T08:17:36;101050.25;;;13.42;100.00
21129;BME280;10722;51.910;8.352;2023-05-23T08:20:21;101062.22;;;13.28;100.00
21129;BME280;10722;51.910;8.352;2023-05-23T08:23:06;101064.00;;;13.29;100.00
21129;BME280;10722;51.910;8.352;2023-05-23T08:25:53;101070.97;;;13.36;100.00
21129;BME280;10722;51.910;8.352;2023-05-23T08:28:38;101074.56;;;13.44;100.00
21129;BME280;10722;51.910;8.352;2023-05-23T08:31:23;101083.19;;;13.42;100.00
21129;BME280;10722;51.910;8.352;2023-05-23T08:34:09;101084.06;;;13.45;100.00
21129;BME280;10722;51.910;8.352;2023-05-23T08:36:55;101078.81;;;13.39;100.00
21129;BME280;10722;51.910;8.352;2023-05-23T08:39:40;101079.53;;;13.28;100.00
21129;BME280;10722;51.910;8.352;2023-05-23T08:42:26;101081.28;;;13.29;100.00
21129;BME280;10722;51.910;8.352;2023-05-23T08:45:11;101087.38;;;13.29;100.00
21129;BME280;10722;51.910;8.352;2023-05-23T08:47:59;101094.44;;;13.41;100.00
21129;BME280;10722;51.910;8.352;2023-05-23T08:50:46;101085.66;;;13.31;100.00
21129;BME280;10722;51.910;8.352;2023-05-23T08:53:32;101096.00;;;13.27;100.00
21129;BME280;10722;51.910;8.352;2023-05-23T08:56:20;101090.75;;;13.23;100.00
21129;BME280;10722;51.910;8.352;2023-05-23T08:59:07;101103.59;;;13.14;100.00
21129;BME280;10722;51.910;8.352;2023-05-23T09:01:54;101112.31;;;13.18;100.00
21129;BME280;10722;51.910;8.352;2023-05-23T09:04:39;101115.78;;;13.18;100.00
21129;BME280;10722;51.910;8.352;2023-05-23T09:07:27;101120.13;;;13.19;100.00
21129;BME280;10722;51.910;8.352;2023-05-23T09:10:13;101130.56;;;13.24;100.00
21129;BME280;10722;51.910;8.352;2023-05-23T09:12:58;101130.53;;;13.22;100.00
21129;BME280;10722;51.910;8.352;2023-05-23T09:18:43;101139.97;;;13.14;100.00
21129;BME280;10722;51.910;8.352;2023-05-23T09:21:30;101152.13;;;13.15;100.00
21129;BME280;10722;51.910;8.352;2023-05-23T09:24:15;101153.88;;;13.18;100.00
21129;BME280;10722;51.910;8.352;2023-05-23T09:27:00;101156.41;;;13.13;100.00
21129;BME280;10722;51.910;8.352;2023-05-23T09:29:47;101165.16;;;13.18;100.00
21129;BME280;10722;51.910;8.352;2023-05-23T09:32:32;101163.38;;;13.17;100.00
21129;BME280;10722;51.910;8.352;2023-05-23T09:35:21;101162.56;;;13.20;100.00
21129;BME280;10722;51.910;8.352;2023-05-23T09:38:07;101158.19;;;13.17;100.00
21129;BME280;10722;51.910;8.352;2023-05-23T09:40:53;101167.53;;;13.05;100.00
21129;BME280;10722;51.910;8.352;2023-05-23T09:43:48;101168.41;;;13.04;100.00
21129;BME280;10722;51.910;8.352;2023-05-23T09:46:35;101171.78;;;12.99;100.00
21129;BME280;10722;51.910;8.352;2023-05-23T09:49:21;101167.47;;;12.98;100.00
21129;BME280;10722;51.910;8.352;2023-05-23T09:52:06;101169.91;;;12.89;100.00
21129;BME280;10722;51.910;8.352;2023-05-23T09:54:53;101172.63;;;12.97;100.00
21129;BME280;10722;51.910;8.352;2023-05-23T09:57:40;101170.75;;;12.88;100.00
21129;BME280;10722;51.910;8.352;2023-05-23T10:00:25;101176.03;;;12.93;100.00
21129;BME280;10722;51.910;8.352;2023-05-23T10:03:12;101187.97;;;12.83;100.00
21129;BME280;10722;51.910;8.352;2023-05-23T10:06:07;101189.88;;;12.93;100.00
21129;BME280;10722;51.910;8.352;2023-05-23T10:09:05;101179.38;;;12.86;100.00
21129;BME280;10722;51.910;8.352;2023-05-23T10:14:54;101179.38;;;12.84;100.00
21129;BME280;10722;51.910;8.352;2023-05-23T10:17:52;101183.63;;;12.81;100.00
21129;BME280;10722;51.910;8.352;2023-05-23T10:20:42;101189.72;;;12.81;100.00
21129;BME280;10722;51.910;8.352;2023-05-23T10:23:32;101190.50;;;12.77;100.00
21129;BME280;10722;51.910;8.352;2023-05-23T10:26:18;101194.91;;;12.81;100.00
21129;BME280;10722;51.910;8.352;2023-05-23T10:29:05;101201.91;;;12.88;100.00
21129;BME280;10722;51.910;8.352;2023-05-23T10:31:51;101199.00;;;12.68;100.00
21129;BME280;10722;51.910;8.352;2023-05-23T10:34:42;101204.16;;;12.67;100.00
21129;BME280;10722;51.910;8.352;2023-05-23T10:43:52;101194.69;;;12.67;100.00
21129;BME280;10722;51.910;8.352;2023-05-23T10:46:53;101181.31;;;12.99;100.00
21129;BME280;10722;51.910;8.352;2023-05-23T10:49:43;101178.09;;;13.17;100.00
21129;BME280;10722;51.910;8.352;2023-05-23T10:52:38;101166.88;;;13.19;100.00
21129;BME280;10722;51.910;8.352;2023-05-23T10:55:23;101165.19;;;13.23;100.00
21129;BME280;10722;51.910;8.352;2023-05-23T10:58:15;101165.09;;;13.17;100.00
21129;BME280;10722;51.910;8.352;2023-05-23T11:01:08;101153.78;;;13.10;100.00
21129;BME280;10722;51.910;8.352;2023-05-23T11:03:53;101178.34;;;13.32;100.00
21129;BME280;10722;51.910;8.352;2023-05-23T11:06:41;101195.97;;;13.55;100.00
21129;BME280;10722;51.910;8.352;2023-05-23T11:09:27;101185.94;;;13.84;100.00
21129;BME280;10722;51.910;8.352;2023-05-23T11:12:13;101172.34;;;14.12;100.00
21129;BME280;10722;51.910;8.352;2023-05-23T11:14:58;101162.09;;;14.29;99.58
21129;BME280;10722;51.910;8.352;2023-05-23T11:17:51;101123.66;;;13.99;95.07
21129;BME280;10722;51.910;8.352;2023-05-23T11:20:37;101138.78;;;14.40;94.87
21129;BME280;10722;51.910;8.352;2023-05-23T11:23:38;101112.91;;;14.54;93.46
21129;BME280;10722;51.910;8.352;2023-05-23T11:26:31;101106.69;;;14.41;92.20
21129;BME280;10722;51.910;8.352;2023-05-23T11:29:16;101094.38;;;14.22;90.11
21129;BME280;10722;51.910;8.352;2023-05-23T11:32:12;101104.94;;;14.37;90.09
21129;BME280;10722;51.910;8.352;2023-05-23T11:35:03;101081.56;;;14.46;88.28
21129;BME280;10722;51.910;8.352;2023-05-23T11:37:48;101073.63;;;14.32;87.27
21129;BME280;10722;51.910;8.352;2023-05-23T11:40:37;101106.69;;;14.41;88.51
21129;BME280;10722;51.910;8.352;2023-05-23T11:43:23;101117.88;;;14.29;88.26
21129;BME280;10722;51.910;8.352;2023-05-23T11:46:08;101109.06;;;14.13;86.98
21129;BME280;10722;51.910;8.352;2023-05-23T11:48:54;101109.88;;;14.08;87.00
21129;BME280;10722;51.910;8.352;2023-05-23T11:51:39;101117.63;;;14.00;87.41
21129;BME280;10722;51.910;8.352;2023-05-23T11:54:25;101134.97;;;14.00;87.58
21129;BME280;10722;51.910;8.352;2023-05-23T11:57:12;101136.53;;;13.85;87.31
21129;BME280;10722;51.910;8.352;2023-05-23T11:59:57;101147.69;;;13.77;87.27
21129;BME280;10722;51.910;8.352;2023-05-23T12:02:44;101147.75;;;13.80;86.88
21129;BME280;10722;51.910;8.352;2023-05-23T12:05:29;101138.81;;;13.59;85.93
21129;BME280;10722;51.910;8.352;2023-05-23T12:08:15;101152.88;;;13.77;86.90
21129;BME280;10722;51.910;8.352;2023-05-23T12:11:01;101149.56;;;13.90;85.95
21129;BME280;10722;51.910;8.352;2023-05-23T12:13:46;101161.94;;;14.11;86.15
21129;BME280;10722;51.910;8.352;2023-05-23T12:16:33;101170.09;;;14.48;86.30
21129;BME280;10722;51.910;8.352;2023-05-23T12:19:18;101147.56;;;14.51;84.60
21129;BME280;10722;51.910;8.352;2023-05-23T12:22:05;101126.00;;;14.66;83.72
21129;BME280;10722;51.910;8.352;2023-05-23T12:24:55;101115.63;;;14.74;82.68
21129;BME280;10722;51.910;8.352;2023-05-23T12:27:40;101116.53;;;14.80;82.56
21129;BME280;10722;51.910;8.352;2023-05-23T12:30:25;101106.13;;;14.80;81.68
21129;BME280;10722;51.910;8.352;2023-05-23T12:33:11;101115.03;;;15.19;82.01
21129;BME280;10722;51.910;8.352;2023-05-23T12:35:57;101094.41;;;15.72;80.30
21129;BME280;10722;51.910;8.352;2023-05-23T12:38:42;101094.41;;;15.84;79.47
21129;BME280;10722;51.910;8.352;2023-05-23T12:41:28;101081.31;;;15.67;78.70
21129;BME280;10722;51.910;8.352;2023-05-23T12:44:15;101068.22;;;15.44;77.92
21129;BME280;10722;51.910;8.352;2023-05-23T12:47:02;101057.00;;;15.76;76.46
21129;BME280;10722;51.910;8.352;2023-05-23T12:49:47;101090.09;;;16.33;76.95
21129;BME280;10722;51.910;8.352;2023-05-23T12:52:33;101003.94;;;16.18;73.67
21129;BME280;10722;51.910;8.352;2023-05-23T12:55:18;101012.69;;;15.97;73.38
21129;BME280;10722;51.910;8.352;2023-05-23T12:58:03;101061.38;;;15.98;74.48
21129;BME280;10722;51.910;8.352;2023-05-23T13:00:49;101077.88;;;15.77;75.09
21129;BME280;10722;51.910;8.352;2023-05-23T13:03:34;101097.91;;;15.86;75.72
21129;BME280;10722;51.910;8.352;2023-05-23T13:06:20;101080.47;;;15.69;74.81
21129;BME280;10722;51.910;8.352;2023-05-23T13:09:05;101099.63;;;15.93;75.25
21129;BME280;10722;51.910;8.352;2023-05-23T13:11:51;101073.56;;;16.24;74.01
21129;BME280;10722;51.910;8.352;2023-05-23T13:14:36;101043.97;;;16.16;72.69
21129;BME280;10722;51.910;8.352;2023-05-23T13:17:22;101040.50;;;16.29;72.62
21129;BME280;10722;51.910;8.352;2023-05-23T13:20:09;101038.75;;;16.31;71.69
21129;BME280;10722;51.910;8.352;2023-05-23T13:22:58;101004.84;;;15.89;70.64
21129;BME280;10722;51.910;8.352;2023-05-23T13:25:44;101042.22;;;15.81;71.04
21129;BME280;10722;51.910;8.352;2023-05-23T13:28:29;101088.38;;;16.11;72.03
21129;BME280;10722;51.910;8.352;2023-05-23T13:31:15;101050.06;;;16.30;70.17
21129;BME280;10722;51.910;8.352;2023-05-23T13:34:00;101041.34;;;16.40;69.40
21129;BME280;10722;51.910;8.352;2023-05-23T13:36:45;101046.59;;;16.14;69.12
21129;BME280;10722;51.910;8.352;2023-05-23T13:39:30;101059.66;;;16.08;69.82
21129;BME280;10722;51.910;8.352;2023-05-23T13:42:16;101063.13;;;16.39;69.41
21129;BME280;10722;51.910;8.352;2023-05-23T13:45:01;101028.28;;;16.43;68.17
21129;BME280;10722;51.910;8.352;2023-05-23T13:47:46;101037.84;;;16.53;67.28
21129;BME280;10722;51.910;8.352;2023-05-23T13:50:32;100994.38;;;16.26;66.12
21129;BME280;10722;51.910;8.352;2023-05-23T13:53:17;101050.06;;;16.39;67.75
21129;BME280;10722;51.910;8.352;2023-05-23T13:56:03;101051.81;;;16.11;68.21
21129;BME280;10722;51.910;8.352;2023-05-23T13:58:48;101090.91;;;15.69;69.48
21129;BME280;10722;51.910;8.352;2023-05-23T14:01:33;101057.78;;;15.53;68.32
21129;BME280;10722;51.910;8.352;2023-05-23T14:04:19;101069.09;;;15.49;68.22
21129;BME280;10722;51.910;8.352;2023-05-23T14:07:04;101087.38;;;15.58;68.96
21129;BME280;10722;51.910;8.352;2023-05-23T14:09:49;101045.66;;;15.58;67.00
21129;BME280;10722;51.910;8.352;2023-05-23T14:12:35;101059.53;;;15.56;67.35
21129;BME280;10722;51.910;8.352;2023-05-23T14:15:20;101111.72;;;15.63;69.11
21129;BME280;10722;51.910;8.352;2023-05-23T14:18:05;101116.94;;;15.63;69.16
21129;BME280;10722;51.910;8.352;2023-05-23T14:20:51;101136.16;;;15.78;70.15
21129;BME280;10722;51.910;8.352;2023-05-23T14:23:36;101093.47;;;15.66;68.50
21129;BME280;10722;51.910;8.352;2023-05-23T14:26:21;101053.50;;;15.66;66.25
21129;BME280;10722;51.910;8.352;2023-05-23T14:29:06;101062.25;;;15.74;66.68
21129;BME280;10722;51.910;8.352;2023-05-23T14:31:52;101071.81;;;15.89;66.64
21129;BME280;10722;51.910;8.352;2023-05-23T14:34:37;101093.53;;;15.79;67.37
21129;BME280;10722;51.910;8.352;2023-05-23T14:37:24;101086.56;;;15.72;66.63
21129;BME280;10722;51.910;8.352;2023-05-23T14:40:09;101107.44;;;15.79;67.32
21129;BME280;10722;51.910;8.352;2023-05-23T14:42:55;101117.03;;;15.99;67.13
21129;BME280;10722;51.910;8.352;2023-05-23T14:45:40;101084.00;;;15.98;66.42